Time;durP1;ratioP1;P1;durP2;ratioP2;P2;SDS_P1;SDS_P2;PMS_P1;PMS_P2;Temp;Humidity;BMP_temperature;BMP_pressure;BME280_temperature;BME280_humidity;BME280_pressure;Samples;Min_cycle;Max_cycle;Signal;HPM_P1;HPM_P2
2021/05/28 00:00:33;;;;;;;10.83;8.50;;;14.90;99.90;;;;;;4156797;28;20099;-70
2021/05/28 00:02:34;;;;;;;10.33;8.10;;;14.90;99.90;;;;;;4157811;28;20042;-65
2021/05/28 00:04:35;;;;;;;15.95;8.15;;;14.90;99.90;;;;;;4156331;28;20113;-65
2021/05/28 00:06:37;;;;;;;11.48;8.23;;;15.00;99.90;;;;;;4155515;28;20524;-72
2021/05/28 00:08:38;;;;;;;9.85;7.82;;;14.90;99.90;;;;;;4157030;28;20126;-70
2021/05/28 00:10:39;;;;;;;15.27;10.30;;;14.90;99.90;;;;;;4157611;28;20041;-69
2021/05/28 00:12:41;;;;;;;13.48;9.18;;;15.00;99.90;;;;;;4157324;28;20512;-71
2021/05/28 00:14:43;;;;;;;15.65;9.00;;;14.90;99.90;;;;;;4157303;28;20505;-69
2021/05/28 00:16:44;;;;;;;18.27;9.67;;;14.90;99.90;;;;;;4156651;28;20053;-69
2021/05/28 00:18:45;;;;;;;17.30;10.32;;;14.90;99.90;;;;;;4156842;28;20037;-72
2021/05/28 00:20:46;;;;;;;14.13;9.63;;;15.00;99.90;;;;;;4157159;28;20033;-69
2021/05/28 00:22:47;;;;;;;10.60;8.00;;;14.90;99.90;;;;;;4156766;28;20103;-67
2021/05/28 00:24:48;;;;;;;14.60;9.67;;;14.90;99.90;;;;;;4155810;28;20080;-71
2021/05/28 00:26:50;;;;;;;16.23;8.77;;;14.90;99.90;;;;;;4156152;28;20064;-70
2021/05/28 00:28:51;;;;;;;15.03;8.77;;;14.90;99.90;;;;;;4157264;28;20041;-63
2021/05/28 00:30:52;;;;;;;14.10;8.43;;;14.90;99.90;;;;;;4155879;28;20088;-70
2021/05/28 00:32:53;;;;;;;17.03;8.97;;;14.90;99.90;;;;;;4157427;28;20025;-72
2021/05/28 00:34:54;;;;;;;10.02;7.63;;;14.90;99.90;;;;;;4156328;28;20441;-71
2021/05/28 00:36:55;;;;;;;11.10;7.37;;;15.00;99.90;;;;;;4156066;28;20501;-68
2021/05/28 00:38:57;;;;;;;15.38;8.65;;;15.10;99.90;;;;;;4156955;28;20088;-71
2021/05/28 00:40:59;;;;;;;11.30;8.18;;;15.10;99.90;;;;;;4156660;28;20038;-71
2021/05/28 00:43:01;;;;;;;14.03;8.47;;;15.10;99.90;;;;;;4156605;28;20041;-71
2021/05/28 00:45:03;;;;;;;14.02;8.98;;;15.10;99.90;;;;;;4156754;28;20029;-65
2021/05/28 00:47:05;;;;;;;10.55;7.35;;;15.10;99.90;;;;;;4156211;28;20041;-66
2021/05/28 00:49:06;;;;;;;11.90;8.25;;;15.10;99.90;;;;;;4156239;28;20068;-66
2021/05/28 00:51:07;;;;;;;11.65;8.07;;;15.20;99.90;;;;;;4156323;28;20045;-70
2021/05/28 00:53:09;;;;;;;12.88;9.10;;;15.20;99.90;;;;;;4156478;28;20045;-64
2021/05/28 00:55:11;;;;;;;17.30;8.85;;;15.20;99.90;;;;;;4156329;28;20083;-71
2021/05/28 00:57:13;;;;;;;13.52;8.30;;;15.20;99.90;;;;;;4156420;28;20088;-69
2021/05/28 00:59:16;;;;;;;14.88;9.20;;;15.20;99.90;;;;;;4156484;28;20041;-68
2021/05/28 01:01:17;;;;;;;12.75;8.43;;;15.30;99.90;;;;;;4155112;28;20118;-71
2021/05/28 01:03:19;;;;;;;13.90;8.93;;;15.30;99.90;;;;;;4156312;28;20037;-71
2021/05/28 01:05:20;;;;;;;16.35;9.85;;;15.30;99.90;;;;;;4155863;28;20091;-71
2021/05/28 01:07:21;;;;;;;12.57;8.50;;;15.20;99.90;;;;;;4156664;28;20444;-72
2021/05/28 01:09:22;;;;;;;12.73;8.10;;;15.30;99.90;;;;;;4155885;28;20107;-67
2021/05/28 01:11:24;;;;;;;14.93;9.63;;;15.30;99.90;;;;;;4156510;28;20075;-68
2021/05/28 01:13:27;;;;;;;13.60;9.45;;;15.30;99.90;;;;;;4156297;28;20049;-69
2021/05/28 01:15:28;;;;;;;11.32;8.73;;;15.30;99.90;;;;;;4156352;28;20068;-72
2021/05/28 01:17:29;;;;;;;17.83;9.93;;;15.30;99.90;;;;;;4156133;28;20160;-70
2021/05/28 01:19:30;;;;;;;14.32;9.18;;;15.30;99.90;;;;;;4156592;28;20033;-69
2021/05/28 01:21:32;;;;;;;13.07;8.60;;;15.30;99.90;;;;;;4156189;28;20531;-67
2021/05/28 01:23:33;;;;;;;13.85;8.70;;;15.30;99.90;;;;;;4155932;28;20034;-71
2021/05/28 01:25:34;;;;;;;15.00;9.93;;;15.40;99.90;;;;;;4156014;28;20091;-67
2021/05/28 01:27:35;;;;;;;14.02;9.25;;;15.40;99.90;;;;;;4155855;28;20053;-69
2021/05/28 01:29:36;;;;;;;15.10;9.35;;;15.40;99.90;;;;;;4156447;28;20175;-68
2021/05/28 01:31:37;;;;;;;14.65;9.48;;;15.40;99.90;;;;;;4155547;28;20037;-72
2021/05/28 01:33:41;;;;;;;12.45;8.82;;;15.50;99.90;;;;;;4155979;28;20033;-70
2021/05/28 01:35:42;;;;;;;15.63;10.15;;;15.50;99.90;;;;;;4153788;28;20041;-64
2021/05/28 01:37:44;;;;;;;13.73;9.23;;;15.50;99.90;;;;;;4156221;28;20084;-70
2021/05/28 01:39:50;;;;;;;14.55;9.80;;;15.50;99.90;;;;;;4155669;28;20100;-70
2021/05/28 01:41:51;;;;;;;14.27;10.70;;;15.40;99.90;;;;;;4156309;28;20037;-70
2021/05/28 01:43:52;;;;;;;18.55;12.38;;;15.40;99.90;;;;;;4155629;28;20025;-65
2021/05/28 01:45:53;;;;;;;15.88;11.45;;;15.40;99.90;;;;;;4156159;28;20033;-68
2021/05/28 01:47:54;;;;;;;17.80;11.60;;;15.30;99.90;;;;;;4155594;28;20029;-66
2021/05/28 01:49:56;;;;;;;12.07;9.88;;;15.30;99.90;;;;;;4155189;28;20037;-70
2021/05/28 01:51:57;;;;;;;13.27;10.05;;;15.20;99.90;;;;;;4155930;28;20432;-64
2021/05/28 01:53:58;;;;;;;16.98;9.93;;;15.20;99.90;;;;;;4155149;28;20440;-66
2021/05/28 01:55:59;;;;;;;12.73;9.10;;;15.30;99.90;;;;;;4155511;28;20042;-67
2021/05/28 01:58:00;;;;;;;13.93;7.97;;;15.20;99.90;;;;;;4155381;28;20042;-69
2021/05/28 02:00:08;;;;;;;9.20;6.68;;;15.20;99.90;;;;;;4155829;28;20857;-70
2021/05/28 02:02:09;;;;;;;7.68;5.90;;;15.20;99.90;;;;;;4139165;28;20100;-67
2021/05/28 02:04:10;;;;;;;7.63;4.68;;;15.20;99.90;;;;;;4139352;28;20739;-70
2021/05/28 02:06:11;;;;;;;9.63;5.32;;;15.10;99.90;;;;;;4139238;28;20092;-72
2021/05/28 02:08:14;;;;;;;6.18;5.10;;;15.10;99.90;;;;;;4139859;28;20458;-69
2021/05/28 02:10:15;;;;;;;5.57;4.25;;;15.10;99.90;;;;;;4139118;28;20025;-67
2021/05/28 02:12:16;;;;;;;5.20;3.92;;;15.10;99.90;;;;;;4140002;28;20478;-71
2021/05/28 02:14:18;;;;;;;5.78;4.25;;;15.00;99.90;;;;;;4139777;28;20104;-72
2021/05/28 02:16:19;;;;;;;5.78;3.80;;;15.00;99.90;;;;;;4155709;28;20038;-72
2021/05/28 02:18:22;;;;;;;6.13;3.72;;;15.00;99.90;;;;;;4155122;28;20444;-69
2021/05/28 02:20:24;;;;;;;4.15;3.67;;;15.00;99.90;;;;;;4155902;28;20072;-72
2021/05/28 02:22:25;;;;;;;5.97;3.67;;;15.00;99.90;;;;;;4155184;28;20495;-68
2021/05/28 02:24:26;;;;;;;5.30;4.10;;;15.00;99.90;;;;;;4155265;28;20560;-67
2021/05/28 02:26:27;;;;;;;5.00;3.83;;;15.00;99.90;;;;;;4154931;28;20041;-68
2021/05/28 02:28:28;;;;;;;5.47;3.95;;;15.00;99.90;;;;;;4155624;28;20021;-72
2021/05/28 02:30:30;;;;;;;4.25;3.17;;;15.00;99.90;;;;;;4155471;28;20029;-70
2021/05/28 02:32:31;;;;;;;7.15;4.90;;;15.00;99.90;;;;;;4155387;28;20120;-68
2021/05/28 02:34:32;;;;;;;7.93;3.42;;;15.00;99.90;;;;;;4156127;28;20033;-71
2021/05/28 02:36:33;;;;;;;5.85;3.92;;;14.90;99.90;;;;;;4155148;28;20084;-69
2021/05/28 02:38:34;;;;;;;6.27;3.17;;;14.90;99.90;;;;;;4156007;28;20033;-72
2021/05/28 02:40:36;;;;;;;7.40;4.33;;;14.90;99.90;;;;;;4154986;28;20029;-69
2021/05/28 02:42:37;;;;;;;3.67;3.30;;;14.90;99.90;;;;;;4155729;28;20084;-68
2021/05/28 02:44:39;;;;;;;4.85;4.05;;;14.90;99.90;;;;;;4154964;28;20100;-66
2021/05/28 02:46:40;;;;;;;6.97;3.80;;;14.90;99.90;;;;;;4155905;28;20049;-71
2021/05/28 02:48:41;;;;;;;5.70;3.85;;;14.90;99.90;;;;;;4157026;28;20099;-69
2021/05/28 02:50:42;;;;;;;5.47;4.65;;;14.90;99.90;;;;;;4158785;28;20021;-64
2021/05/28 02:52:43;;;;;;;8.27;4.70;;;14.80;99.90;;;;;;4158224;28;20059;-71
2021/05/28 02:54:44;;;;;;;6.47;4.72;;;14.90;99.90;;;;;;4158423;28;20556;-68
2021/05/28 02:56:46;;;;;;;7.40;4.10;;;14.80;99.90;;;;;;4158349;28;20069;-72
2021/05/28 02:58:47;;;;;;;7.43;4.90;;;14.80;99.90;;;;;;4158139;28;20649;-71
2021/05/28 03:00:48;;;;;;;11.02;4.05;;;14.80;99.90;;;;;;4156899;28;20045;-66
2021/05/28 03:02:50;;;;;;;4.77;3.87;;;14.80;99.90;;;;;;4157740;28;20099;-72
2021/05/28 03:04:51;;;;;;;5.30;3.50;;;14.80;99.90;;;;;;4158117;28;20080;-66
2021/05/28 03:06:52;;;;;;;5.50;3.63;;;14.80;99.90;;;;;;4157864;28;20080;-72
2021/05/28 03:08:53;;;;;;;4.75;3.45;;;14.80;99.90;;;;;;4158223;28;20119;-66
2021/05/28 03:10:54;;;;;;;6.88;4.25;;;14.80;99.90;;;;;;4156059;28;20176;-71
2021/05/28 03:12:55;;;;;;;5.30;3.47;;;14.80;99.90;;;;;;4158422;28;20029;-70
2021/05/28 03:14:57;;;;;;;5.30;3.30;;;14.80;99.90;;;;;;4157612;28;20174;-70
2021/05/28 03:16:58;;;;;;;5.93;3.87;;;14.70;99.90;;;;;;4158315;28;20125;-71
2021/05/28 03:19:06;;;;;;;8.73;4.30;;;14.80;99.90;;;;;;4157883;28;20095;-70
2021/05/28 03:21:19;;;;;;;7.87;3.60;;;14.80;99.90;;;;;;4157956;28;20029;-68
2021/05/28 03:23:20;;;;;;;5.77;4.13;;;14.80;99.90;;;;;;4156037;28;20041;-66
2021/05/28 03:25:21;;;;;;;8.10;3.90;;;14.90;99.90;;;;;;4157925;28;20477;-70
2021/05/28 03:27:23;;;;;;;8.63;4.80;;;14.80;99.90;;;;;;4157420;28;20060;-65
2021/05/28 03:29:24;;;;;;;8.13;4.80;;;14.90;99.90;;;;;;4157733;28;20041;-68
2021/05/28 03:31:26;;;;;;;7.55;4.68;;;14.80;99.90;;;;;;4157731;28;20033;-70
2021/05/28 03:33:27;;;;;;;8.23;4.57;;;14.90;99.90;;;;;;4155749;28;20084;-72
2021/05/28 03:35:28;;;;;;;7.07;4.75;;;14.90;99.90;;;;;;4157386;28;20505;-67
2021/05/28 03:37:30;;;;;;;9.00;5.27;;;14.90;99.90;;;;;;4157491;28;20046;-68
2021/05/28 03:39:31;;;;;;;7.13;4.67;;;14.90;99.90;;;;;;4157932;28;20079;-68
2021/05/28 03:41:33;;;;;;;6.73;4.37;;;14.90;99.90;;;;;;4157296;28;20025;-72
2021/05/28 03:43:37;;;;;;;9.40;4.63;;;14.90;99.90;;;;;;4157934;28;20662;-71
2021/05/28 03:45:39;;;;;;;7.63;4.40;;;14.90;99.90;;;;;;4156735;28;20084;-70
2021/05/28 03:47:40;;;;;;;9.97;4.23;;;14.90;99.90;;;;;;4157762;28;20041;-71
2021/05/28 03:49:42;;;;;;;8.33;4.83;;;14.90;99.90;;;;;;4157131;28;20669;-71
2021/05/28 03:51:43;;;;;;;7.40;4.67;;;14.90;99.90;;;;;;4157049;28;20041;-65
2021/05/28 03:53:45;;;;;;;5.18;4.40;;;14.90;99.90;;;;;;4156680;28;20555;-69
2021/05/28 03:55:47;;;;;;;7.93;4.13;;;14.90;99.90;;;;;;4157316;28;20033;-64
2021/05/28 03:57:48;;;;;;;5.20;3.72;;;14.90;99.90;;;;;;4157178;28;20045;-71
2021/05/28 03:59:50;;;;;;;5.32;3.45;;;14.90;99.90;;;;;;4157176;28;20084;-70
2021/05/28 04:01:51;;;;;;;5.93;3.45;;;14.80;99.90;;;;;;4155626;28;20059;-71
2021/05/28 04:03:52;;;;;;;6.73;3.60;;;14.80;99.90;;;;;;4156634;28;20029;-70
2021/05/28 04:05:54;;;;;;;8.05;3.60;;;14.80;99.90;;;;;;4156286;28;20083;-65
2021/05/28 04:07:55;;;;;;;5.73;3.63;;;14.80;99.90;;;;;;4156521;28;20532;-69
2021/05/28 04:09:56;;;;;;;8.95;3.55;;;14.80;99.90;;;;;;4157205;28;20025;-64
2021/05/28 04:11:57;;;;;;;7.63;3.70;;;14.70;99.90;;;;;;4156516;28;20093;-65
2021/05/28 04:13:58;;;;;;;6.32;3.83;;;14.70;99.90;;;;;;4156661;28;20037;-70
2021/05/28 04:16:00;;;;;;;4.57;4.10;;;14.70;99.90;;;;;;4156082;28;20033;-69
2021/05/28 04:18:01;;;;;;;4.90;3.43;;;14.70;99.90;;;;;;4156953;28;20513;-64
2021/05/28 04:20:04;;;;;;;6.15;3.42;;;14.60;99.90;;;;;;4155891;28;20095;-66
2021/05/28 04:22:05;;;;;;;6.67;3.70;;;14.60;99.90;;;;;;4155165;28;20046;-70
2021/05/28 04:24:07;;;;;;;5.13;3.60;;;14.60;99.90;;;;;;4156002;28;20486;-69
2021/05/28 04:26:08;;;;;;;6.97;4.00;;;14.60;99.90;;;;;;4157188;28;20025;-65
2021/05/28 04:28:09;;;;;;;7.75;4.35;;;14.60;99.90;;;;;;4156134;28;20496;-65
2021/05/28 04:30:11;;;;;;;5.83;3.83;;;14.60;99.90;;;;;;4156748;28;20037;-67
2021/05/28 04:32:12;;;;;;;4.47;4.00;;;14.60;99.90;;;;;;4154544;28;20502;-66
2021/05/28 04:34:13;;;;;;;7.73;4.03;;;14.60;99.90;;;;;;4155671;28;20045;-64
2021/05/28 04:36:15;;;;;;;8.30;4.90;;;14.60;99.90;;;;;;4156392;28;20486;-66
2021/05/28 04:38:17;;;;;;;9.82;4.03;;;14.60;99.90;;;;;;4153599;28;20038;-71
2021/05/28 04:40:19;;;;;;;6.63;4.53;;;14.70;99.90;;;;;;4156610;28;20030;-67
2021/05/28 04:42:20;;;;;;;14.35;4.63;;;14.70;99.90;;;;;;4156216;28;20080;-67
2021/05/28 04:44:22;;;;;;;6.53;4.23;;;14.60;99.90;;;;;;4156017;28;20037;-71
2021/05/28 04:46:23;;;;;;;5.82;4.22;;;14.60;99.90;;;;;;4155561;28;20087;-71
2021/05/28 04:48:24;;;;;;;7.33;4.30;;;14.60;99.90;;;;;;4154570;28;20029;-62
2021/05/28 04:50:31;;;;;;;10.73;4.07;;;14.50;99.90;;;;;;4154082;28;20090;-66
2021/05/28 04:52:32;;;;;;;7.53;4.10;;;14.50;99.90;;;;;;4154565;28;20164;-70
2021/05/28 04:54:33;;;;;;;10.40;5.03;;;14.50;99.90;;;;;;4162080;28;20029;-67
2021/05/28 04:56:35;;;;;;;5.93;3.67;;;14.50;99.90;;;;;;4164523;28;20493;-68
2021/05/28 04:58:36;;;;;;;6.63;3.43;;;14.50;99.90;;;;;;4157420;28;20490;-65
2021/05/28 05:00:37;;;;;;;5.27;3.50;;;14.50;99.90;;;;;;4153267;28;20151;-64
2021/05/28 05:02:38;;;;;;;4.40;3.50;;;14.40;99.90;;;;;;4155999;28;20029;-62
2021/05/28 05:04:39;;;;;;;5.33;3.53;;;14.40;99.90;;;;;;4156221;28;20091;-68
2021/05/28 05:06:40;;;;;;;5.87;3.57;;;14.40;99.90;;;;;;4155829;28;20063;-69
2021/05/28 05:08:41;;;;;;;5.63;3.90;;;14.40;99.90;;;;;;4155620;28;20080;-70
2021/05/28 05:10:42;;;;;;;6.47;3.67;;;14.40;99.90;;;;;;4156164;28;20079;-66
2021/05/28 05:12:44;;;;;;;7.83;4.90;;;14.30;99.90;;;;;;4155534;28;20134;-68
2021/05/28 05:14:45;;;;;;;7.93;4.53;;;14.30;99.90;;;;;;4156291;28;20520;-68
2021/05/28 05:16:46;;;;;;;5.40;3.53;;;14.30;99.90;;;;;;4155416;28;20033;-67
2021/05/28 05:18:48;;;;;;;4.37;3.23;;;14.30;99.90;;;;;;4155975;28;20045;-68
2021/05/28 05:20:49;;;;;;;6.03;3.20;;;14.20;99.90;;;;;;4155580;28;20022;-67
2021/05/28 05:22:50;;;;;;;4.93;3.50;;;14.20;99.90;;;;;;4155967;28;20049;-68
2021/05/28 05:24:52;;;;;;;4.90;3.10;;;14.20;99.90;;;;;;4155483;28;20075;-68
2021/05/28 05:26:53;;;;;;;9.47;4.20;;;14.10;99.90;;;;;;4156025;28;20580;-68
2021/05/28 05:28:54;;;;;;;4.60;3.00;;;14.10;99.90;;;;;;4155239;28;20033;-67
2021/05/28 05:30:55;;;;;;;7.50;3.50;;;14.10;99.90;;;;;;4155919;28;20851;-67
2021/05/28 05:32:56;;;;;;;4.27;3.20;;;14.00;99.90;;;;;;4155687;28;20075;-68
2021/05/28 05:34:58;;;;;;;7.53;3.80;;;14.10;99.90;;;;;;4155907;28;20087;-70
2021/05/28 05:37:01;;;;;;;4.90;3.30;;;14.00;99.90;;;;;;4155713;28;20429;-65
2021/05/28 05:39:03;;;;;;;6.00;2.90;;;14.10;99.90;;;;;;4155007;28;20496;-64
2021/05/28 05:41:04;;;;;;;7.67;4.17;;;14.10;99.90;;;;;;4156779;28;20501;-64
2021/05/28 05:43:06;;;;;;;7.13;3.70;;;14.10;99.90;;;;;;4155891;28;20088;-64
2021/05/28 05:45:09;;;;;;;4.67;3.17;;;14.10;99.90;;;;;;4154208;28;20496;-65
2021/05/28 05:47:11;;;;;;;5.17;3.50;;;14.20;99.90;;;;;;4158612;28;20868;-66
2021/05/28 05:49:12;;;;;;;4.93;3.10;;;14.20;99.90;;;;;;4158699;28;20459;-66
2021/05/28 05:51:13;;;;;;;5.23;3.60;;;14.20;99.90;;;;;;4157338;28;20374;-67
2021/05/28 05:53:15;;;;;;;7.77;3.60;;;14.30;99.90;;;;;;4156155;28;20490;-67
2021/05/28 05:55:18;;;;;;;5.90;3.73;;;14.30;99.90;;;;;;4153228;28;20067;-69
2021/05/28 05:57:19;;;;;;;7.40;3.50;;;14.30;99.90;;;;;;4156465;28;20433;-68
2021/05/28 05:59:21;;;;;;;5.97;3.53;;;14.30;99.90;;;;;;4155303;28;20041;-70
2021/05/28 06:01:22;;;;;;;5.20;3.17;;;14.30;99.90;;;;;;4156268;28;20079;-67
2021/05/28 06:03:23;;;;;;;6.40;3.53;;;14.40;99.90;;;;;;4154915;28;20049;-70
2021/05/28 06:05:24;;;;;;;8.53;2.90;;;14.40;99.90;;;;;;4155973;28;20037;-66
2021/05/28 06:07:25;;;;;;;4.10;3.40;;;14.40;99.90;;;;;;4155894;28;20101;-65
2021/05/28 06:09:27;;;;;;;7.27;3.60;;;14.50;99.90;;;;;;4159429;28;20588;-65
2021/05/28 06:11:28;;;;;;;5.93;2.85;;;14.60;99.90;;;;;;4154328;28;20041;-69
2021/05/28 06:13:29;;;;;;;5.30;3.10;;;14.60;99.90;;;;;;4155088;28;20021;-68
2021/05/28 06:15:30;;;;;;;3.70;2.97;;;14.60;99.90;;;;;;4155806;28;20383;-68
2021/05/28 06:17:32;;;;;;;3.17;2.30;;;14.70;99.90;;;;;;4155292;28;20470;-67
2021/05/28 06:19:33;;;;;;;3.97;2.93;;;14.80;99.90;;;;;;4162715;28;20045;-66
2021/05/28 06:21:34;;;;;;;3.60;3.17;;;14.80;99.90;;;;;;4170008;28;20037;-71
2021/05/28 06:23:35;;;;;;;3.72;2.78;;;14.90;99.90;;;;;;4144921;28;20037;-69
2021/05/28 06:25:40;;;;;;;5.97;3.63;;;14.90;99.90;;;;;;4141921;28;20038;-72
2021/05/28 06:27:42;;;;;;;7.15;5.53;;;14.90;99.90;;;;;;4157700;28;20083;-70
2021/05/28 06:29:44;;;;;;;11.07;8.93;;;14.90;99.90;;;;;;4158154;28;20033;-66
2021/05/28 06:31:45;;;;;;;7.80;6.07;;;15.00;99.90;;;;;;4158799;28;20045;-73
2021/05/28 06:33:46;;;;;;;7.65;4.93;;;15.00;99.90;;;;;;4158294;28;20025;-71
2021/05/28 06:35:48;;;;;;;6.83;3.47;;;15.00;99.90;;;;;;4157021;28;20041;-67
2021/05/28 06:37:49;;;;;;;4.72;2.42;;;15.10;99.90;;;;;;4158115;28;20037;-71
2021/05/28 06:39:50;;;;;;;3.70;2.75;;;15.00;99.90;;;;;;4159845;28;20099;-70
2021/05/28 06:41:51;;;;;;;3.15;2.20;;;15.10;99.90;;;;;;4158217;28;20087;-62
2021/05/28 06:43:52;;;;;;;3.40;3.10;;;15.10;99.90;;;;;;4158104;28;20045;-68
2021/05/28 06:45:53;;;;;;;6.03;2.67;;;15.10;99.90;;;;;;4158450;28;20530;-65
2021/05/28 06:47:54;;;;;;;3.42;2.30;;;15.10;99.90;;;;;;4158686;28;20043;-69
2021/05/28 06:49:56;;;;;;;2.97;2.17;;;15.10;99.90;;;;;;4158505;28;20033;-69
2021/05/28 06:51:57;;;;;;;3.03;2.33;;;15.20;99.90;;;;;;4157936;28;20531;-67
2021/05/28 06:53:58;;;;;;;2.70;2.17;;;15.10;99.90;;;;;;4158894;28;20084;-66
2021/05/28 06:55:59;;;;;;;2.85;2.17;;;15.10;99.90;;;;;;4157483;28;20010;-69
2021/05/28 06:58:00;;;;;;;4.30;2.85;;;15.20;99.90;;;;;;4158695;28;20115;-68
2021/05/28 07:00:03;;;;;;;3.95;3.55;;;15.20;99.90;;;;;;4155439;28;20041;-65
2021/05/28 07:02:06;;;;;;;4.50;3.47;;;15.20;99.90;;;;;;4158646;28;20091;-68
2021/05/28 07:04:07;;;;;;;6.95;3.25;;;15.10;99.90;;;;;;4157581;28;20026;-66
2021/05/28 07:06:09;;;;;;;6.88;2.92;;;15.10;99.90;;;;;;4158217;28;20386;-66
2021/05/28 07:08:10;;;;;;;5.45;3.13;;;15.10;99.90;;;;;;4155754;28;20049;-69
2021/05/28 07:10:12;;;;;;;3.40;2.35;;;15.20;99.90;;;;;;4157436;28;20041;-70
2021/05/28 07:12:13;;;;;;;4.90;3.35;;;15.20;99.90;;;;;;4156801;28;20095;-65
2021/05/28 07:14:14;;;;;;;5.75;2.88;;;15.30;99.90;;;;;;4157935;28;20167;-66
2021/05/28 07:16:15;;;;;;;5.65;3.03;;;15.40;99.90;;;;;;4157399;28;20811;-66
2021/05/28 07:18:17;;;;;;;2.45;2.25;;;15.40;99.90;;;;;;4158043;28;20041;-67
2021/05/28 07:20:18;;;;;;;4.88;2.83;;;15.40;99.90;;;;;;4150393;28;20021;-69
2021/05/28 07:22:19;;;;;;;4.32;2.58;;;15.40;99.90;;;;;;4157012;28;20793;-70
2021/05/28 07:24:21;;;;;;;5.18;3.17;;;15.40;99.90;;;;;;4157790;28;20033;-64
2021/05/28 07:26:22;;;;;;;5.60;3.33;;;15.30;99.90;;;;;;4157515;28;20482;-64
2021/05/28 07:28:23;;;;;;;4.90;2.85;;;15.30;99.90;;;;;;4157913;28;20657;-67
2021/05/28 07:30:24;;;;;;;3.45;3.00;;;15.20;99.90;;;;;;4157179;28;20080;-66
2021/05/28 07:32:25;;;;;;;6.55;3.40;;;15.20;99.90;;;;;;4158225;28;20575;-64
2021/05/28 07:34:27;;;;;;;3.08;2.50;;;15.20;99.90;;;;;;4156287;28;20029;-67
2021/05/28 07:36:28;;;;;;;4.15;3.28;;;15.20;99.90;;;;;;4157339;28;20087;-69
2021/05/28 07:38:29;;;;;;;5.75;4.53;;;15.20;99.90;;;;;;4157012;28;20059;-68
2021/05/28 07:40:30;;;;;;;11.38;8.63;;;15.40;99.90;;;;;;4157463;28;20026;-67
2021/05/28 07:42:31;;;;;;;4.85;3.13;;;15.40;99.90;;;;;;4157025;28;20116;-68
2021/05/28 07:44:34;;;;;;;3.33;2.20;;;15.50;99.90;;;;;;4157579;28;20091;-68
2021/05/28 07:46:40;;;;;;;2.75;2.22;;;15.60;99.90;;;;;;4157508;28;20083;-67
2021/05/28 07:48:41;;;;;;;4.32;2.63;;;15.70;99.90;;;;;;4157328;28;20021;-69
2021/05/28 07:50:46;;;;;;;4.20;2.08;;;15.70;99.90;;;;;;4157525;28;20029;-64
2021/05/28 07:52:47;;;;;;;4.15;3.00;;;15.70;99.90;;;;;;4157510;28;20100;-69
2021/05/28 07:54:48;;;;;;;4.03;2.78;;;15.80;99.90;;;;;;4157571;28;20025;-67
2021/05/28 07:56:49;;;;;;;4.38;2.00;;;15.80;99.90;;;;;;4157114;28;20030;-66
2021/05/28 07:58:50;;;;;;;2.70;1.88;;;15.80;99.90;;;;;;4157537;28;20045;-68
2021/05/28 08:00:51;;;;;;;3.47;2.30;;;15.80;99.90;;;;;;4156890;28;20037;-70
2021/05/28 08:02:52;;;;;;;3.42;2.50;;;15.80;99.90;;;;;;4156919;28;20549;-67
2021/05/28 08:04:54;;;;;;;1.67;1.45;;;15.80;99.90;;;;;;4155651;28;20098;-70
2021/05/28 08:06:55;;;;;;;2.22;1.67;;;15.80;99.90;;;;;;4157224;28;20022;-65
2021/05/28 08:08:56;;;;;;;4.20;1.75;;;15.80;99.90;;;;;;4156338;28;20057;-69
2021/05/28 08:10:58;;;;;;;5.00;1.60;;;15.80;99.90;;;;;;4157902;28;20099;-68
2021/05/28 08:12:59;;;;;;;2.00;1.80;;;15.80;99.90;;;;;;4156218;28;20037;-67
2021/05/28 08:15:00;;;;;;;4.45;1.98;;;15.90;99.90;;;;;;4156195;28;20083;-69
2021/05/28 08:17:01;;;;;;;4.22;2.28;;;15.90;99.90;;;;;;4156243;28;20037;-65
2021/05/28 08:19:03;;;;;;;4.80;1.83;;;16.00;99.90;;;;;;4156520;28;20037;-66
2021/05/28 08:21:05;;;;;;;6.90;2.45;;;16.00;99.90;;;;;;4157072;28;20134;-64
2021/05/28 08:23:06;;;;;;;1.92;1.70;;;16.00;99.90;;;;;;4156757;28;20080;-65
2021/05/28 08:25:08;;;;;;;3.83;2.03;;;16.10;99.90;;;;;;4156082;28;20095;-69
2021/05/28 08:27:10;;;;;;;2.45;1.80;;;16.00;99.90;;;;;;4156458;28;20029;-63
2021/05/28 08:29:11;;;;;;;2.50;1.90;;;16.00;99.90;;;;;;4157283;28;20111;-67
2021/05/28 08:31:12;;;;;;;3.28;2.33;;;16.00;99.90;;;;;;4156001;28;20528;-70
2021/05/28 08:33:14;;;;;;;3.38;2.80;;;16.10;99.90;;;;;;4156462;28;20119;-68
2021/05/28 08:35:16;;;;;;;4.15;2.85;;;16.10;99.90;;;;;;4155637;28;20440;-68
2021/05/28 08:37:17;;;;;;;3.47;2.47;;;16.20;99.90;;;;;;4157097;28;20041;-65
2021/05/28 08:39:20;;;;;;;6.43;2.20;;;16.30;99.90;;;;;;4155998;28;20139;-68
2021/05/28 08:41:22;;;;;;;4.18;2.78;;;16.40;99.90;;;;;;4156001;28;20104;-62
2021/05/28 08:43:23;;;;;;;5.93;2.47;;;16.40;99.90;;;;;;4155849;28;20578;-71
2021/05/28 08:45:26;;;;;;;3.97;2.85;;;16.50;99.90;;;;;;4155496;28;20083;-67
2021/05/28 08:47:27;;;;;;;3.60;2.88;;;16.50;99.90;;;;;;4156699;28;20088;-70
2021/05/28 08:49:28;;;;;;;2.30;2.08;;;16.60;99.90;;;;;;4156293;28;20453;-72
2021/05/28 08:51:29;;;;;;;4.55;2.58;;;16.60;99.90;;;;;;4156163;28;20098;-69
2021/05/28 08:53:31;;;;;;;7.65;3.30;;;16.60;99.90;;;;;;4156738;28;20041;-71
2021/05/28 08:55:33;;;;;;;5.03;2.33;;;16.70;99.90;;;;;;4156418;28;20486;-64
2021/05/28 08:57:34;;;;;;;2.03;1.83;;;16.70;99.90;;;;;;4156167;28;20049;-65
2021/05/28 08:59:35;;;;;;;4.78;2.13;;;16.70;99.90;;;;;;4156092;28;20037;-68
2021/05/28 09:01:36;;;;;;;4.28;3.63;;;16.80;99.90;;;;;;4155507;28;20921;-70
2021/05/28 09:03:38;;;;;;;3.42;2.33;;;16.80;99.90;;;;;;4156175;28;20100;-69
2021/05/28 09:05:39;;;;;;;4.05;2.53;;;16.90;99.90;;;;;;4155343;28;20103;-67
2021/05/28 09:07:57;;;;;;;3.55;1.90;;;16.90;99.90;;;;;;4156430;28;20033;-69
2021/05/28 09:09:59;;;;;;;3.72;2.97;;;17.10;99.90;;;;;;4155415;28;20057;-67
2021/05/28 09:12:04;;;;;;;5.22;3.50;;;17.20;99.90;;;;;;4156459;28;20083;-70
2021/05/28 09:14:05;;;;;;;10.18;6.28;;;17.30;99.90;;;;;;4154790;28;20083;-66
2021/05/28 09:16:13;;;;;;;5.53;3.70;;;17.30;99.90;;;;;;4156422;28;20110;-65
2021/05/28 09:18:15;;;;;;;5.25;4.38;;;17.20;99.90;;;;;;4154883;28;20045;-65
2021/05/28 09:20:21;;;;;;;6.93;5.05;;;17.20;99.90;;;;;;4156330;28;20034;-63
2021/05/28 09:22:32;;;;;;;4.28;3.00;;;17.20;99.90;;;;;;4154984;28;20088;-67
2021/05/28 09:24:35;;;;;;;5.25;2.45;;;17.10;99.90;;;;;;4156376;28;20029;-69
2021/05/28 09:26:37;;;;;;;7.20;3.33;;;17.10;99.90;;;;;;4154623;28;20026;-63
2021/05/28 09:28:48;;;;;;;4.85;3.78;;;17.10;99.90;;;;;;4153540;28;20071;-65
2021/05/28 09:31:00;;;;;;;6.57;2.53;;;17.20;99.90;;;;;;4155428;28;20053;-70
2021/05/28 09:33:01;;;;;;;7.00;2.75;;;17.20;99.90;;;;;;4155989;28;20723;-70
2021/05/28 09:35:04;;;;;;;5.63;3.58;;;17.30;99.90;;;;;;4156533;28;20064;-67
2021/05/28 09:37:11;;;;;;;1.80;1.70;;;17.40;99.90;;;;;;4159452;28;20171;-67
2021/05/28 09:39:16;;;;;;;2.70;2.28;;;17.60;99.90;;;;;;4155411;28;20058;-68
2021/05/28 09:41:37;;;;;;;3.85;2.10;;;17.80;99.90;;;;;;4155860;28;20749;-68
2021/05/28 09:43:38;;;;;;;3.92;2.30;;;17.90;99.90;;;;;;4155130;28;20429;-70
2021/05/28 09:45:39;;;;;;;3.90;2.22;;;18.00;99.90;;;;;;4155847;28;20034;-64
2021/05/28 09:47:41;;;;;;;2.95;1.95;;;18.10;99.90;;;;;;4155439;28;20083;-70
2021/05/28 09:49:43;;;;;;;2.13;1.67;;;18.20;99.90;;;;;;4155565;28;20449;-66
2021/05/28 09:52:05;;;;;;;3.33;2.88;;;18.20;99.90;;;;;;4155889;28;20103;-72
2021/05/28 09:54:15;;;;;;;3.22;2.90;;;18.20;99.90;;;;;;4155943;28;20025;-70
2021/05/28 09:56:32;;;;;;;3.08;2.60;;;18.20;99.90;;;;;;4155263;28;20030;-70
2021/05/28 09:58:59;;;;;;;2.17;1.98;;;18.30;99.90;;;;;;4154677;28;20111;-69
2021/05/28 10:01:09;;;;;;;2.65;2.45;;;18.30;99.90;;;;;;4155076;28;20025;-69
2021/05/28 10:03:14;;;;;;;4.65;2.55;;;18.40;99.90;;;;;;4155088;28;20033;-65
2021/05/28 10:05:23;;;;;;;4.75;2.63;;;18.50;99.90;;;;;;4154963;28;20021;-65
2021/05/28 10:07:25;;;;;;;4.50;2.17;;;18.50;99.90;;;;;;4155352;28;20029;-70
2021/05/28 10:09:28;;;;;;;2.65;1.73;;;18.50;99.90;;;;;;4152072;28;20045;-67
2021/05/28 10:11:31;;;;;;;1.60;1.50;;;18.50;99.90;;;;;;4155593;28;20084;-66
2021/05/28 10:13:32;;;;;;;3.03;1.70;;;18.50;99.90;;;;;;4155001;28;20025;-65
2021/05/28 10:15:33;;;;;;;4.10;1.75;;;18.60;99.90;;;;;;4154914;28;20481;-71
2021/05/28 10:17:35;;;;;;;2.75;1.45;;;18.60;99.90;;;;;;4154506;28;20084;-65
2021/05/28 10:19:37;;;;;;;2.70;1.73;;;18.70;99.90;;;;;;4154797;28;20090;-69
2021/05/28 10:21:38;;;;;;;2.30;2.10;;;18.60;99.90;;;;;;4155381;28;20049;-68
2021/05/28 10:23:39;;;;;;;7.22;1.63;;;18.50;99.90;;;;;;4154621;28;20033;-64
2021/05/28 10:25:41;;;;;;;7.38;2.97;;;18.50;99.90;;;;;;4155407;28;20049;-68
2021/05/28 10:27:52;;;;;;;5.00;2.80;;;18.50;99.90;;;;;;4154417;28;20029;-66
2021/05/28 10:29:54;;;;;;;9.57;5.50;;;18.50;99.90;;;;;;4155789;28;20155;-64
2021/05/28 10:32:10;;;;;;;7.72;3.65;;;18.60;99.90;;;;;;4153778;28;20095;-65
2021/05/28 10:34:11;;;;;;;6.18;3.70;;;18.60;99.90;;;;;;4148496;28;20037;-68